Terminal Aerodrome Forecast
Issued by NWS

Home | Current Version | Previous Version | Text Only | Print | Product List | Glossary On
Versions: 1 2 3 4 5 6 7 8 9 10 11 12 13 14 15 16 17
061
FTUS45 KRIW 292338
TAFCPR
TAF
KCPR 292338Z 3000/3024 09014KT 6SM -RASN SCT007 BKN015
      TEMPO 3000/3003 3SM -SN BR BKN007
     FM300300 06010KT 4SM -SN SCT005 OVC010
     FM300700 05010KT 3SM -SN BKN006
     FM301400 03011KT 2SM -SHRASN SCT002 OVC008=

USA.gov is the U.S. government's official web portal to all federal, state and local government web resources and services.